createdAt,value
2023-08-14T00:00:18.374Z,1011.48
2023-08-14T00:01:18.324Z,1011.47
2023-08-14T00:02:18.613Z,1011.47
2023-08-14T00:03:18.330Z,1011.48
2023-08-14T00:04:18.302Z,1011.49
2023-08-14T00:05:18.311Z,1011.49
2023-08-14T00:06:18.297Z,1011.48
2023-08-14T00:07:18.304Z,1011.48
2023-08-14T00:08:18.283Z,1011.48
2023-08-14T00:09:18.222Z,1011.48
2023-08-14T00:10:18.236Z,1011.48
2023-08-14T00:11:18.215Z,1011.48
2023-08-14T00:12:18.449Z,1011.47
2023-08-14T00:13:18.217Z,1011.47
2023-08-14T00:14:18.184Z,1011.47
2023-08-14T00:15:18.143Z,1011.48
2023-08-14T00:16:18.189Z,1011.50
2023-08-14T00:17:18.143Z,1011.53
2023-08-14T00:18:18.142Z,1011.54
2023-08-14T00:19:18.204Z,1011.55
2023-08-14T00:20:18.111Z,1011.54
2023-08-14T00:21:18.128Z,1011.52
2023-08-14T00:22:18.418Z,1011.50
2023-08-14T00:23:18.072Z,1011.50
2023-08-14T00:24:18.061Z,1011.50
2023-08-14T00:25:18.070Z,1011.51
2023-08-14T00:26:18.079Z,1011.50
2023-08-14T00:27:18.026Z,1011.50
2023-08-14T00:28:18.070Z,1011.49
2023-08-14T00:29:18.007Z,1011.48
2023-08-14T00:30:18.035Z,1011.47
2023-08-14T00:31:18.391Z,1011.46
2023-08-14T00:32:18.256Z,1011.45
2023-08-14T00:33:17.954Z,1011.45
2023-08-14T00:34:17.979Z,1011.44
2023-08-14T00:35:17.942Z,1011.44
2023-08-14T00:36:18.236Z,1011.44
2023-08-14T00:37:17.950Z,1011.44
2023-08-14T00:38:17.967Z,1011.44
2023-08-14T00:39:17.902Z,1011.43
2023-08-14T00:40:17.926Z,1011.42
2023-08-14T00:41:17.914Z,1011.42
2023-08-14T00:42:18.204Z,1011.43
2023-08-14T00:43:18.567Z,1011.44
2023-08-14T00:44:17.860Z,1011.44
2023-08-14T00:45:18.730Z,1011.42
2023-08-14T00:46:17.890Z,1011.40
2023-08-14T00:47:17.843Z,1011.39
2023-08-14T00:48:17.838Z,1011.40
2023-08-14T00:49:17.846Z,1011.41
2023-08-14T00:50:17.784Z,1011.43
2023-08-14T00:51:17.780Z,1011.43
2023-08-14T00:52:18.095Z,1011.42
2023-08-14T00:53:17.773Z,1011.42
2023-08-14T00:54:17.752Z,1011.42
2023-08-14T00:55:17.807Z,1011.42
2023-08-14T00:56:17.730Z,1011.42
2023-08-14T00:57:17.733Z,1011.41
2023-08-14T00:58:17.709Z,1011.42
2023-08-14T00:59:17.719Z,1011.43
2023-08-14T01:00:17.690Z,1011.44
2023-08-14T01:01:17.787Z,1011.45
2023-08-14T01:02:17.850Z,1011.44
2023-08-14T01:03:17.759Z,1011.44
2023-08-14T01:04:17.661Z,1011.43
2023-08-14T01:05:17.617Z,1011.42
2023-08-14T01:06:17.650Z,1011.41
2023-08-14T01:07:17.641Z,1011.41
2023-08-14T01:08:17.612Z,1011.41
2023-08-14T01:09:17.600Z,1011.41
2023-08-14T01:10:17.584Z,1011.41
2023-08-14T01:11:17.619Z,1011.42
2023-08-14T01:12:17.927Z,1011.43
2023-08-14T01:13:17.561Z,1011.44
2023-08-14T01:14:17.548Z,1011.44
2023-08-14T01:15:17.526Z,1011.44
2023-08-14T01:16:17.630Z,1011.44
2023-08-14T01:17:17.525Z,1011.43
2023-08-14T01:18:17.505Z,1011.40
2023-08-14T01:19:17.522Z,1011.38
2023-08-14T01:20:17.493Z,1011.36
2023-08-14T01:21:17.497Z,1011.34
2023-08-14T01:22:17.837Z,1011.34
2023-08-14T01:23:17.466Z,1011.36
2023-08-14T01:24:17.426Z,1011.37
2023-08-14T01:25:17.424Z,1011.38
2023-08-14T01:26:17.400Z,1011.38
2023-08-14T01:27:17.412Z,1011.37
2023-08-14T01:28:17.381Z,1011.35
2023-08-14T01:29:17.392Z,1011.33
2023-08-14T01:30:17.425Z,1011.33
2023-08-14T01:31:17.361Z,1011.34
2023-08-14T01:32:17.565Z,1011.35
2023-08-14T01:33:17.321Z,1011.35
2023-08-14T01:34:17.353Z,1011.33
2023-08-14T01:35:17.300Z,1011.31
2023-08-14T01:36:17.309Z,1011.28
2023-08-14T01:37:17.327Z,1011.26
2023-08-14T01:38:17.317Z,1011.25
2023-08-14T01:39:17.271Z,1011.23
2023-08-14T01:40:17.317Z,1011.22
2023-08-14T01:41:17.265Z,1011.21
2023-08-14T01:42:17.602Z,1011.20
2023-08-14T01:43:17.219Z,1011.19
2023-08-14T01:44:17.251Z,1011.19
2023-08-14T01:45:17.216Z,1011.18
2023-08-14T01:46:17.233Z,1011.18
2023-08-14T01:47:17.199Z,1011.19
2023-08-14T01:48:17.196Z,1011.19
2023-08-14T01:49:17.833Z,1011.18
2023-08-14T01:50:17.169Z,1011.16
2023-08-14T01:51:17.142Z,1011.14
2023-08-14T01:52:17.380Z,1011.13
2023-08-14T01:53:17.136Z,1011.13
2023-08-14T01:54:17.168Z,1011.12
2023-08-14T01:55:17.110Z,1011.12
2023-08-14T01:56:17.086Z,1011.11
2023-08-14T01:57:17.077Z,1011.09
2023-08-14T01:58:17.055Z,1011.08
2023-08-14T01:59:17.067Z,1011.07
2023-08-14T02:00:17.054Z,1011.06
2023-08-14T02:01:17.077Z,1011.05
2023-08-14T02:02:17.350Z,1011.03
2023-08-14T02:03:17.127Z,1011.04
2023-08-14T02:04:17.042Z,1011.04
2023-08-14T02:05:16.992Z,1011.04
2023-08-14T02:06:17.014Z,1011.04
2023-08-14T02:07:17.022Z,1011.05
2023-08-14T02:08:16.977Z,1011.05
2023-08-14T02:09:16.966Z,1011.04
2023-08-14T02:10:16.971Z,1011.03
2023-08-14T02:11:16.960Z,1011.03
2023-08-14T02:12:17.196Z,1011.02
2023-08-14T02:13:16.911Z,1011.01
2023-08-14T02:14:16.905Z,1011.00
2023-08-14T02:15:16.898Z,1010.98
2023-08-14T02:16:16.921Z,1010.96
2023-08-14T02:17:16.853Z,1010.94
2023-08-14T02:18:16.855Z,1010.93
2023-08-14T02:19:16.892Z,1010.92
2023-08-14T02:20:16.846Z,1010.92
2023-08-14T02:21:16.827Z,1010.90
2023-08-14T02:22:17.057Z,1010.88
2023-08-14T02:23:16.841Z,1010.86
2023-08-14T02:24:16.831Z,1010.83
2023-08-14T02:25:16.824Z,1010.82
2023-08-14T02:26:16.787Z,1010.80
2023-08-14T02:27:16.760Z,1010.78
2023-08-14T02:28:16.752Z,1010.76
2023-08-14T02:29:16.778Z,1010.75
2023-08-14T02:30:16.739Z,1010.75
2023-08-14T02:31:16.758Z,1010.75
2023-08-14T02:32:17.047Z,1010.74
2023-08-14T02:33:16.709Z,1010.73
2023-08-14T02:34:16.687Z,1010.74
2023-08-14T02:35:16.682Z,1010.73
2023-08-14T02:36:16.684Z,1010.72
2023-08-14T02:37:16.672Z,1010.69
2023-08-14T02:38:16.632Z,1010.66
2023-08-14T02:39:16.699Z,1010.65
2023-08-14T02:40:16.653Z,1010.65
2023-08-14T02:41:16.628Z,1010.65
2023-08-14T02:42:16.910Z,1010.65
2023-08-14T02:43:16.570Z,1010.65
2023-08-14T02:44:16.609Z,1010.65
2023-08-14T02:45:16.575Z,1010.65
2023-08-14T02:46:16.622Z,1010.63
2023-08-14T02:47:16.579Z,1010.61
2023-08-14T02:48:16.545Z,1010.56
2023-08-14T02:49:16.530Z,1010.53
2023-08-14T02:50:16.538Z,1010.51
2023-08-14T02:51:16.529Z,1010.51
2023-08-14T02:52:16.765Z,1010.53
2023-08-14T02:53:16.489Z,1010.55
2023-08-14T02:54:16.510Z,1010.58
2023-08-14T02:55:16.467Z,1010.60
2023-08-14T02:56:16.444Z,1010.63
2023-08-14T02:57:16.476Z,1010.66
2023-08-14T02:58:16.429Z,1010.67
2023-08-14T02:59:16.414Z,1010.66
2023-08-14T03:00:16.446Z,1010.64
2023-08-14T03:01:16.391Z,1010.62
2023-08-14T03:02:16.763Z,1010.60
2023-08-14T03:03:16.578Z,1010.60
2023-08-14T03:04:16.354Z,1010.60
2023-08-14T03:05:16.360Z,1010.60
2023-08-14T03:06:16.367Z,1010.60
2023-08-14T03:07:16.388Z,1010.59
2023-08-14T03:08:16.355Z,1010.58
2023-08-14T03:09:16.305Z,1010.58
2023-08-14T03:10:16.295Z,1010.59
2023-08-14T03:11:16.294Z,1010.60
2023-08-14T03:12:16.489Z,1010.59
2023-08-14T03:13:16.316Z,1010.58
2023-08-14T03:14:16.268Z,1010.56
2023-08-14T03:15:16.239Z,1010.55
2023-08-14T03:16:16.284Z,1010.56
2023-08-14T03:17:16.233Z,1010.60
2023-08-14T03:18:16.239Z,1010.63
2023-08-14T03:19:16.210Z,1010.65
2023-08-14T03:20:16.257Z,1010.66
2023-08-14T03:21:16.190Z,1010.66
2023-08-14T03:22:16.551Z,1010.65
2023-08-14T03:23:16.157Z,1010.64
2023-08-14T03:24:16.151Z,1010.63
2023-08-14T03:25:16.154Z,1010.61
2023-08-14T03:26:16.144Z,1010.59
2023-08-14T03:27:16.149Z,1010.58
2023-08-14T03:28:16.167Z,1010.57
2023-08-14T03:29:16.090Z,1010.56
2023-08-14T03:30:16.039Z,1010.55
2023-08-14T03:31:16.179Z,1010.55
2023-08-14T03:32:16.457Z,1010.56
2023-08-14T03:33:16.100Z,1010.58
2023-08-14T03:34:16.016Z,1010.59
2023-08-14T03:35:15.983Z,1010.60
2023-08-14T03:36:15.969Z,1010.60
2023-08-14T03:37:16.080Z,1010.59
2023-08-14T03:38:15.949Z,1010.57
2023-08-14T03:39:15.990Z,1010.56
2023-08-14T03:40:16.011Z,1010.55
2023-08-14T03:41:15.936Z,1010.55
2023-08-14T03:42:16.337Z,1010.55
2023-08-14T03:43:15.918Z,1010.55
2023-08-14T03:44:15.947Z,1010.53
2023-08-14T03:45:15.888Z,1010.51
2023-08-14T03:46:15.911Z,1010.51
2023-08-14T03:47:15.927Z,1010.52
2023-08-14T03:48:15.828Z,1010.54
2023-08-14T03:49:15.833Z,1010.56
2023-08-14T03:50:15.875Z,1010.58
2023-08-14T03:51:15.820Z,1010.60
2023-08-14T03:52:16.122Z,1010.61
2023-08-14T03:53:15.780Z,1010.62
2023-08-14T03:54:15.788Z,1010.64
2023-08-14T03:55:15.765Z,1010.65
2023-08-14T03:56:15.768Z,1010.65
2023-08-14T03:57:15.761Z,1010.67
2023-08-14T03:58:15.735Z,1010.68
2023-08-14T03:59:15.739Z,1010.69
2023-08-14T04:00:15.725Z,1010.69
2023-08-14T04:01:15.701Z,1010.68
2023-08-14T04:02:15.700Z,1010.67
2023-08-14T04:03:15.797Z,1010.67
2023-08-14T04:04:15.677Z,1010.67
2023-08-14T04:05:15.681Z,1010.68
2023-08-14T04:06:15.686Z,1010.69
2023-08-14T04:07:15.650Z,1010.70
2023-08-14T04:08:15.679Z,1010.70
2023-08-14T04:09:15.658Z,1010.70
2023-08-14T04:10:15.617Z,1010.70
2023-08-14T04:11:15.608Z,1010.68
2023-08-14T04:12:15.846Z,1010.66
2023-08-14T04:13:15.594Z,1010.65
2023-08-14T04:14:15.562Z,1010.65
2023-08-14T04:15:15.586Z,1010.65
2023-08-14T04:16:15.606Z,1010.67
2023-08-14T04:17:15.527Z,1010.68
2023-08-14T04:18:15.580Z,1010.68
2023-08-14T04:19:15.548Z,1010.68
2023-08-14T04:20:15.548Z,1010.67
2023-08-14T04:21:15.495Z,1010.66
2023-08-14T04:22:15.472Z,1010.66
2023-08-14T04:23:15.506Z,1010.66
2023-08-14T04:24:15.473Z,1010.65
2023-08-14T04:25:15.440Z,1010.66
2023-08-14T04:26:15.439Z,1010.65
2023-08-14T04:27:15.427Z,1010.63
2023-08-14T04:28:15.446Z,1010.61
2023-08-14T04:29:15.439Z,1010.60
2023-08-14T04:30:15.395Z,1010.58
2023-08-14T04:31:15.378Z,1010.57
2023-08-14T04:32:15.422Z,1010.55
2023-08-14T04:33:15.377Z,1010.54
2023-08-14T04:34:15.364Z,1010.54
2023-08-14T04:35:15.355Z,1010.54
2023-08-14T04:36:15.368Z,1010.54
2023-08-14T04:37:15.332Z,1010.53
2023-08-14T04:38:15.340Z,1010.52
2023-08-14T04:39:15.294Z,1010.50
2023-08-14T04:40:15.304Z,1010.48
2023-08-14T04:41:15.303Z,1010.46
2023-08-14T04:42:15.266Z,1010.45
2023-08-14T04:43:15.256Z,1010.43
2023-08-14T04:44:15.250Z,1010.42
2023-08-14T04:45:15.259Z,1010.39
2023-08-14T04:46:15.274Z,1010.37
2023-08-14T04:47:15.214Z,1010.35
2023-08-14T04:48:15.274Z,1010.33
2023-08-14T04:49:15.248Z,1010.34
2023-08-14T04:50:15.238Z,1010.35
2023-08-14T04:51:15.197Z,1010.37
2023-08-14T04:52:15.169Z,1010.39
2023-08-14T04:53:15.216Z,1010.41
2023-08-14T04:54:15.163Z,1010.42
2023-08-14T04:55:15.163Z,1010.43
2023-08-14T04:56:15.120Z,1010.44
2023-08-14T04:57:15.689Z,1010.46
2023-08-14T04:58:15.138Z,1010.48
2023-08-14T04:59:15.108Z,1010.52
2023-08-14T05:00:15.142Z,1010.55
2023-08-14T05:01:15.194Z,1010.56
2023-08-14T05:02:15.278Z,1010.54
2023-08-14T05:03:15.037Z,1010.50
2023-08-14T05:04:15.089Z,1010.46
2023-08-14T05:05:15.045Z,1010.44
2023-08-14T05:06:15.021Z,1010.45
2023-08-14T05:07:15.054Z,1010.46
2023-08-14T05:08:14.992Z,1010.47
2023-08-14T05:09:25.640Z,1010.48
2023-08-14T05:10:14.990Z,1010.46
2023-08-14T05:11:15.501Z,1010.43
2023-08-14T05:12:15.463Z,1010.38
2023-08-14T05:13:15.124Z,1010.34
2023-08-14T05:14:15.031Z,1010.29
2023-08-14T05:15:15.022Z,1010.27
2023-08-14T05:16:15.047Z,1010.27
2023-08-14T05:17:14.982Z,1010.29
2023-08-14T05:18:14.969Z,1010.31
2023-08-14T05:19:15.037Z,1010.32
2023-08-14T05:20:14.990Z,1010.32
2023-08-14T05:21:15.044Z,1010.32
2023-08-14T05:22:14.980Z,1010.32
2023-08-14T05:23:14.873Z,1010.35
2023-08-14T05:24:14.857Z,1010.38
2023-08-14T05:25:14.876Z,1010.43
2023-08-14T05:26:14.876Z,1010.46
2023-08-14T05:27:14.885Z,1010.47
2023-08-14T05:28:14.869Z,1010.48
2023-08-14T05:29:14.878Z,1010.50
2023-08-14T05:30:14.920Z,1010.52
2023-08-14T05:31:14.848Z,1010.54
2023-08-14T05:32:14.846Z,1010.55
2023-08-14T05:33:14.803Z,1010.54
2023-08-14T05:34:14.797Z,1010.51
2023-08-14T05:35:14.838Z,1010.49
2023-08-14T05:36:14.744Z,1010.47
2023-08-14T05:37:14.739Z,1010.45
2023-08-14T05:38:14.739Z,1010.43
2023-08-14T05:39:14.718Z,1010.40
2023-08-14T05:40:14.771Z,1010.37
2023-08-14T05:41:14.707Z,1010.36
2023-08-14T05:42:14.770Z,1010.34
2023-08-14T05:43:14.762Z,1010.34
2023-08-14T05:44:14.713Z,1010.35
2023-08-14T05:45:14.698Z,1010.37
2023-08-14T05:46:14.756Z,1010.39
2023-08-14T05:47:14.918Z,1010.41
2023-08-14T05:48:16.286Z,1010.42
2023-08-14T05:49:17.417Z,1010.43
2023-08-14T05:50:19.512Z,1010.44
2023-08-14T05:53:56.157Z,1010.41
2023-08-14T05:55:00.047Z,1010.40
2023-08-14T05:55:56.668Z,1010.41
2023-08-14T05:56:56.512Z,1010.43
2023-08-14T05:57:56.469Z,1010.44
2023-08-14T05:58:56.649Z,1010.44
2023-08-14T05:59:56.638Z,1010.44
2023-08-14T06:00:56.522Z,1010.43
2023-08-14T06:01:58.587Z,1010.43
2023-08-14T06:02:56.598Z,1010.42
2023-08-14T06:03:56.625Z,1010.42
2023-08-14T06:04:56.402Z,1010.41
2023-08-14T06:05:56.559Z,1010.40
2023-08-14T06:06:56.542Z,1010.40
2023-08-14T06:07:56.579Z,1010.39
2023-08-14T06:08:58.314Z,1010.40
2023-08-14T06:09:56.569Z,1010.41
2023-08-14T06:10:56.473Z,1010.42
2023-08-14T06:11:56.429Z,1010.41
2023-08-14T06:12:56.362Z,1010.40
2023-08-14T06:13:56.418Z,1010.39
2023-08-14T06:14:56.370Z,1010.37
2023-08-14T06:15:56.301Z,1010.36
2023-08-14T06:16:56.622Z,1010.35
2023-08-14T06:17:56.568Z,1010.35
2023-08-14T06:18:56.409Z,1010.34
2023-08-14T06:19:56.320Z,1010.34
2023-08-14T06:20:56.466Z,1010.34
2023-08-14T06:21:56.425Z,1010.36
2023-08-14T06:22:56.404Z,1010.39
2023-08-14T06:23:56.294Z,1010.40
2023-08-14T06:24:56.227Z,1010.40
2023-08-14T06:25:56.298Z,1010.38
2023-08-14T06:26:56.631Z,1010.35
2023-08-14T06:27:56.297Z,1010.33
2023-08-14T06:28:56.428Z,1010.32
2023-08-14T06:29:56.180Z,1010.33
2023-08-14T06:30:56.244Z,1010.32
2023-08-14T06:31:56.284Z,1010.32
2023-08-14T06:32:56.192Z,1010.32
2023-08-14T06:33:56.374Z,1010.32
2023-08-14T06:34:56.196Z,1010.33
2023-08-14T06:35:56.166Z,1010.34
2023-08-14T06:36:56.154Z,1010.34
2023-08-14T06:37:56.127Z,1010.34
2023-08-14T06:38:57.349Z,1010.36
2023-08-14T06:39:56.130Z,1010.39
2023-08-14T06:40:56.088Z,1010.41
2023-08-14T06:41:56.096Z,1010.44
2023-08-14T06:42:56.007Z,1010.45
2023-08-14T06:43:56.325Z,1010.47
2023-08-14T06:44:56.287Z,1010.48
2023-08-14T06:45:56.141Z,1010.50
2023-08-14T06:46:56.105Z,1010.52
2023-08-14T06:47:55.985Z,1010.53
2023-08-14T06:48:55.944Z,1010.54
2023-08-14T06:49:56.292Z,1010.53
2023-08-14T06:50:56.012Z,1010.52
2023-08-14T06:51:55.938Z,1010.50
2023-08-14T06:52:56.033Z,1010.49
2023-08-14T06:53:56.224Z,1010.48
2023-08-14T06:54:55.879Z,1010.48
2023-08-14T06:55:55.910Z,1010.49
2023-08-14T06:56:55.827Z,1010.51
2023-08-14T06:57:55.952Z,1010.54
2023-08-14T06:58:55.966Z,1010.58
2023-08-14T06:59:55.883Z,1010.60
2023-08-14T07:00:55.900Z,1010.62
2023-08-14T07:01:55.952Z,1010.63
2023-08-14T07:02:55.909Z,1010.63
2023-08-14T07:03:55.805Z,1010.62
2023-08-14T07:04:55.754Z,1010.62
2023-08-14T07:05:55.810Z,1010.62
2023-08-14T07:06:55.710Z,1010.63
2023-08-14T07:07:55.774Z,1010.65
2023-08-14T07:08:55.712Z,1010.65
2023-08-14T07:09:55.818Z,1010.64
2023-08-14T07:10:55.772Z,1010.62
2023-08-14T07:11:55.743Z,1010.60
2023-08-14T07:12:55.839Z,1010.58
2023-08-14T07:13:55.814Z,1010.58
2023-08-14T07:14:55.660Z,1010.58
2023-08-14T07:15:55.775Z,1010.59
2023-08-14T07:16:55.706Z,1010.59
2023-08-14T07:17:55.812Z,1010.57
2023-08-14T07:18:55.687Z,1010.56
2023-08-14T07:19:55.877Z,1010.55
2023-08-14T07:20:56.930Z,1010.55
2023-08-14T07:21:55.601Z,1010.53
2023-08-14T07:22:55.554Z,1010.51
2023-08-14T07:23:55.552Z,1010.49
2023-08-14T07:24:55.592Z,1010.48
2023-08-14T07:25:55.550Z,1010.48
2023-08-14T07:26:55.529Z,1010.50
2023-08-14T07:27:55.607Z,1010.52
2023-08-14T07:28:55.660Z,1010.52
2023-08-14T07:29:55.636Z,1010.52
2023-08-14T07:30:55.604Z,1010.50
2023-08-14T07:31:55.611Z,1010.49
2023-08-14T07:32:56.140Z,1010.49
2023-08-14T07:33:55.607Z,1010.50
2023-08-14T07:34:55.501Z,1010.51
2023-08-14T07:35:55.457Z,1010.54
2023-08-14T07:36:55.429Z,1010.58
2023-08-14T07:37:56.296Z,1010.62
2023-08-14T07:38:55.730Z,1010.66
2023-08-14T07:39:56.073Z,1010.66
2023-08-14T07:40:56.387Z,1010.64
2023-08-14T07:41:55.903Z,1010.60
2023-08-14T07:42:55.513Z,1010.58
2023-08-14T07:43:55.421Z,1010.58
2023-08-14T07:44:55.465Z,1010.56
2023-08-14T07:45:55.425Z,1010.51
2023-08-14T07:46:55.378Z,1010.44
2023-08-14T07:47:55.429Z,1010.38
2023-08-14T07:48:55.362Z,1010.37
2023-08-14T07:49:55.312Z,1010.40
2023-08-14T07:50:55.308Z,1010.45
2023-08-14T07:51:55.323Z,1010.49
2023-08-14T07:52:55.277Z,1010.50
2023-08-14T07:53:55.287Z,1010.50
2023-08-14T07:54:55.316Z,1010.50
2023-08-14T07:55:55.237Z,1010.50
2023-08-14T07:56:55.246Z,1010.51
2023-08-14T07:57:55.385Z,1010.49
2023-08-14T07:58:55.440Z,1010.46
2023-08-14T07:59:55.403Z,1010.43
2023-08-14T08:00:55.358Z,1010.43
2023-08-14T08:01:55.290Z,1010.46
2023-08-14T08:02:55.245Z,1010.49
2023-08-14T08:03:55.240Z,1010.50
2023-08-14T08:04:55.200Z,1010.49
2023-08-14T08:05:55.220Z,1010.46
2023-08-14T08:06:55.212Z,1010.45
2023-08-14T08:07:55.201Z,1010.44
2023-08-14T08:08:55.530Z,1010.43
2023-08-14T08:09:55.166Z,1010.41
2023-08-14T08:10:55.496Z,1010.36
2023-08-14T08:11:56.386Z,1010.33
2023-08-14T08:12:55.116Z,1010.33
2023-08-14T08:13:57.890Z,1010.33
2023-08-14T08:14:55.070Z,1010.33
2023-08-14T08:15:55.103Z,1010.35
2023-08-14T08:16:55.043Z,1010.38
2023-08-14T08:17:55.127Z,1010.40
2023-08-14T08:18:55.007Z,1010.43
2023-08-14T08:19:56.422Z,1010.43
2023-08-14T08:20:55.624Z,1010.41
2023-08-14T08:21:56.023Z,1010.40
2023-08-14T08:22:55.390Z,1010.40
2023-08-14T08:23:54.985Z,1010.41
2023-08-14T08:24:55.393Z,1010.42
2023-08-14T08:25:55.231Z,1010.43
2023-08-14T08:26:55.170Z,1010.42
2023-08-14T08:27:55.035Z,1010.39
2023-08-14T08:28:55.134Z,1010.36
2023-08-14T08:29:55.234Z,1010.35
2023-08-14T08:30:55.030Z,1010.36
2023-08-14T08:31:55.217Z,1010.36
2023-08-14T08:33:03.277Z,1010.37
2023-08-14T08:33:54.887Z,1010.35
2023-08-14T08:34:54.884Z,1010.34
2023-08-14T08:35:54.851Z,1010.35
2023-08-14T08:36:54.830Z,1010.36
2023-08-14T08:37:54.855Z,1010.39
2023-08-14T08:38:54.957Z,1010.40
2023-08-14T08:39:54.803Z,1010.39
2023-08-14T08:40:54.787Z,1010.36
2023-08-14T08:41:54.833Z,1010.33
2023-08-14T08:42:54.832Z,1010.30
2023-08-14T08:43:54.772Z,1010.26
2023-08-14T08:44:54.776Z,1010.23
2023-08-14T08:45:54.794Z,1010.21
2023-08-14T08:46:54.762Z,1010.20
2023-08-14T08:47:54.718Z,1010.19
2023-08-14T08:48:54.712Z,1010.20
2023-08-14T08:49:54.672Z,1010.22
2023-08-14T08:50:54.677Z,1010.26
2023-08-14T08:51:54.629Z,1010.31
2023-08-14T08:52:54.686Z,1010.35
2023-08-14T08:53:54.654Z,1010.37
2023-08-14T08:54:54.631Z,1010.36
2023-08-14T08:55:54.673Z,1010.35
2023-08-14T08:56:54.582Z,1010.35
2023-08-14T08:57:54.645Z,1010.35
2023-08-14T08:58:54.702Z,1010.34
2023-08-14T08:59:54.573Z,1010.32
2023-08-14T09:00:54.575Z,1010.31
2023-08-14T09:01:57.509Z,1010.31
2023-08-14T09:02:54.718Z,1010.31
2023-08-14T09:03:54.689Z,1010.31
2023-08-14T09:04:54.744Z,1010.34
2023-08-14T09:05:54.569Z,1010.37
2023-08-14T09:06:54.557Z,1010.41
2023-08-14T09:07:54.588Z,1010.43
2023-08-14T09:08:54.612Z,1010.46
2023-08-14T09:09:54.568Z,1010.48
2023-08-14T09:10:54.622Z,1010.49
2023-08-14T09:11:54.512Z,1010.50
2023-08-14T09:12:54.447Z,1010.51
2023-08-14T09:13:54.435Z,1010.52
2023-08-14T09:14:54.476Z,1010.54
2023-08-14T09:15:54.442Z,1010.59
2023-08-14T09:16:54.596Z,1010.62
2023-08-14T09:17:54.445Z,1010.63
2023-08-14T09:18:54.378Z,1010.62
2023-08-14T09:19:54.454Z,1010.61
2023-08-14T09:20:54.382Z,1010.59
2023-08-14T09:21:54.368Z,1010.55
2023-08-14T09:22:54.454Z,1010.53
2023-08-14T09:23:54.386Z,1010.50
2023-08-14T09:24:54.373Z,1010.48
2023-08-14T09:25:54.330Z,1010.45
2023-08-14T09:26:54.326Z,1010.42
2023-08-14T09:27:54.301Z,1010.39
2023-08-14T09:28:54.264Z,1010.38
2023-08-14T09:29:54.296Z,1010.38
2023-08-14T09:30:54.349Z,1010.39
2023-08-14T09:31:54.289Z,1010.40
2023-08-14T09:32:54.335Z,1010.39
2023-08-14T09:33:54.246Z,1010.39
2023-08-14T09:34:54.334Z,1010.36
2023-08-14T09:35:54.249Z,1010.36
2023-08-14T09:36:54.208Z,1010.35
2023-08-14T09:37:54.228Z,1010.36
2023-08-14T09:38:54.199Z,1010.35
2023-08-14T09:39:54.654Z,1010.33
2023-08-14T09:40:54.265Z,1010.33
2023-08-14T09:41:54.247Z,1010.31
2023-08-14T09:42:54.165Z,1010.30
2023-08-14T09:43:54.229Z,1010.30
2023-08-14T09:44:54.228Z,1010.29
2023-08-14T09:45:54.116Z,1010.30
2023-08-14T09:46:54.265Z,1010.29
2023-08-14T09:47:54.300Z,1010.27
2023-08-14T09:48:54.161Z,1010.26
2023-08-14T09:49:54.163Z,1010.24
2023-08-14T09:50:54.096Z,1010.22
2023-08-14T09:51:54.185Z,1010.20
2023-08-14T09:52:54.110Z,1010.16
2023-08-14T09:53:54.123Z,1010.13
2023-08-14T09:54:54.323Z,1010.10
2023-08-14T09:55:54.211Z,1010.07
2023-08-14T09:56:54.355Z,1010.08
2023-08-14T09:57:54.007Z,1010.09
2023-08-14T09:58:54.008Z,1010.07
2023-08-14T09:59:54.083Z,1010.06
2023-08-14T10:00:54.652Z,1010.05
2023-08-14T10:01:53.994Z,1010.04
2023-08-14T10:02:54.239Z,1010.03
2023-08-14T10:03:54.005Z,1010.02
2023-08-14T10:04:54.010Z,1010.02
2023-08-14T10:05:54.045Z,1010.01
2023-08-14T10:06:53.932Z,1009.98
2023-08-14T10:07:53.969Z,1009.96
2023-08-14T10:08:53.955Z,1009.93
2023-08-14T10:09:53.898Z,1009.89
2023-08-14T10:11:05.793Z,1009.88
2023-08-14T10:11:53.938Z,1009.85
2023-08-14T10:12:53.908Z,1009.87
2023-08-14T10:13:53.831Z,1009.86
2023-08-14T10:14:53.834Z,1009.88
2023-08-14T10:15:53.858Z,1009.89
2023-08-14T10:16:53.965Z,1009.86
2023-08-14T10:17:53.921Z,1009.83
2023-08-14T10:18:53.811Z,1009.81
2023-08-14T10:19:53.813Z,1009.80
2023-08-14T10:20:53.799Z,1009.81
2023-08-14T10:21:53.850Z,1009.78
2023-08-14T10:22:53.805Z,1009.75
2023-08-14T10:23:53.741Z,1009.74
2023-08-14T10:24:53.880Z,1009.73
2023-08-14T10:25:54.020Z,1009.73
2023-08-14T10:26:53.792Z,1009.76
2023-08-14T10:27:53.691Z,1009.77
2023-08-14T10:28:53.706Z,1009.75
2023-08-14T10:29:53.677Z,1009.76
2023-08-14T10:30:53.679Z,1009.77
2023-08-14T10:31:53.696Z,1009.75
2023-08-14T10:32:53.710Z,1009.76
2023-08-14T10:33:53.658Z,1009.76
2023-08-14T10:34:53.609Z,1009.76
2023-08-14T10:35:53.594Z,1009.73
2023-08-14T10:36:53.685Z,1009.73
2023-08-14T10:38:08.239Z,1009.70
2023-08-14T10:39:53.644Z,1009.71
2023-08-14T10:40:54.393Z,1009.71
2023-08-14T10:41:53.570Z,1009.73
2023-08-14T10:42:53.552Z,1009.72
2023-08-14T10:43:53.635Z,1009.72
2023-08-14T10:44:53.517Z,1009.72
2023-08-14T10:45:53.599Z,1009.71
2023-08-14T10:46:53.599Z,1009.71
2023-08-14T10:47:53.556Z,1009.71
2023-08-14T10:48:53.576Z,1009.72
2023-08-14T10:49:53.565Z,1009.72
2023-08-14T10:50:53.489Z,1009.70
2023-08-14T10:51:53.457Z,1009.70
2023-08-14T10:52:53.464Z,1009.72
2023-08-14T10:53:53.524Z,1009.71
2023-08-14T10:54:53.391Z,1009.68
2023-08-14T10:55:53.550Z,1009.72
2023-08-14T10:56:53.447Z,1009.74
2023-08-14T10:57:53.393Z,1009.73
2023-08-14T10:58:53.367Z,1009.74
2023-08-14T10:59:53.341Z,1009.73
2023-08-14T11:00:53.387Z,1009.73
2023-08-14T11:01:53.456Z,1009.70
2023-08-14T11:02:53.395Z,1009.69
2023-08-14T11:03:53.306Z,1009.69
2023-08-14T11:04:53.325Z,1009.71
2023-08-14T11:05:53.341Z,1009.72
2023-08-14T11:06:53.323Z,1009.72
2023-08-14T11:07:53.256Z,1009.71
2023-08-14T11:08:53.241Z,1009.70
2023-08-14T11:09:53.261Z,1009.67
2023-08-14T11:10:53.260Z,1009.68
2023-08-14T11:11:53.229Z,1009.67
2023-08-14T11:12:53.292Z,1009.67
2023-08-14T11:13:53.228Z,1009.66
2023-08-14T11:14:53.215Z,1009.67
2023-08-14T11:15:53.314Z,1009.67
2023-08-14T11:16:53.212Z,1009.66
2023-08-14T11:17:53.255Z,1009.67
2023-08-14T11:18:53.218Z,1009.66
2023-08-14T11:19:53.157Z,1009.67
2023-08-14T11:20:53.154Z,1009.65
2023-08-14T11:21:53.138Z,1009.67
2023-08-14T11:22:53.172Z,1009.66
2023-08-14T11:23:53.139Z,1009.65
2023-08-14T11:24:53.219Z,1009.66
2023-08-14T11:25:53.148Z,1009.65
2023-08-14T11:26:53.180Z,1009.63
2023-08-14T11:27:53.103Z,1009.61
2023-08-14T11:28:53.101Z,1009.61
2023-08-14T11:29:54.759Z,1009.61
2023-08-14T11:30:53.095Z,1009.59
2023-08-14T11:31:53.172Z,1009.55
2023-08-14T11:32:53.095Z,1009.55
2023-08-14T11:33:53.006Z,1009.54
2023-08-14T11:34:53.057Z,1009.54
2023-08-14T11:35:52.972Z,1009.52
2023-08-14T11:37:06.614Z,1009.51
2023-08-14T11:37:52.972Z,1009.50
2023-08-14T11:38:52.979Z,1009.50
2023-08-14T11:39:53.213Z,1009.50
2023-08-14T11:40:52.931Z,1009.50
2023-08-14T11:41:52.936Z,1009.52
2023-08-14T11:42:52.963Z,1009.52
2023-08-14T11:43:52.929Z,1009.52
2023-08-14T11:44:52.962Z,1009.51
2023-08-14T11:45:52.915Z,1009.51
2023-08-14T11:46:52.961Z,1009.50
2023-08-14T11:47:53.021Z,1009.49
2023-08-14T11:48:52.990Z,1009.50
2023-08-14T11:49:52.937Z,1009.49
2023-08-14T11:50:52.940Z,1009.49
2023-08-14T11:51:52.856Z,1009.47
2023-08-14T11:52:52.820Z,1009.46
2023-08-14T11:53:52.846Z,1009.43
2023-08-14T11:54:52.798Z,1009.41
2023-08-14T11:55:52.817Z,1009.41
2023-08-14T11:56:52.797Z,1009.38
2023-08-14T11:57:52.764Z,1009.39
2023-08-14T11:59:03.264Z,1009.38
2023-08-14T11:59:52.782Z,1009.39
2023-08-14T12:00:52.776Z,1009.40
2023-08-14T12:01:52.760Z,1009.41
2023-08-14T12:02:52.766Z,1009.42
2023-08-14T12:03:52.801Z,1009.42
2023-08-14T12:04:52.749Z,1009.43
2023-08-14T12:05:52.701Z,1009.42
2023-08-14T12:06:52.756Z,1009.42
2023-08-14T12:07:52.700Z,1009.41
2023-08-14T12:08:52.723Z,1009.42